createdAt,value
2019-05-03T00:00:18.819Z,99.90
2019-05-03T00:04:22.607Z,99.90
2019-05-03T00:08:21.723Z,99.90
2019-05-03T00:12:22.168Z,99.90
2019-05-03T00:16:29.634Z,99.90
2019-05-03T00:20:28.267Z,99.90
2019-05-03T00:24:29.465Z,99.90
2019-05-03T00:28:28.015Z,99.90
2019-05-03T00:32:28.514Z,99.90
2019-05-03T00:36:43.557Z,99.90
2019-05-03T00:40:47.491Z,99.90
2019-05-03T00:44:52.581Z,99.90
2019-05-03T00:48:54.162Z,99.90
2019-05-03T00:52:53.255Z,99.90
2019-05-03T00:57:02.994Z,99.90
2019-05-03T01:01:02.705Z,99.90
2019-05-03T01:05:02.917Z,99.90
2019-05-03T01:09:11.813Z,99.90
2019-05-03T01:13:14.327Z,99.90
2019-05-03T01:17:15.097Z,99.90
2019-05-03T01:21:18.804Z,99.90
2019-05-03T01:25:29.237Z,99.90
2019-05-03T01:29:18.005Z,99.90
2019-05-03T01:33:22.716Z,99.90
2019-05-03T01:37:22.632Z,99.90
2019-05-03T01:41:25.413Z,99.90
2019-05-03T01:45:23.959Z,99.90
2019-05-03T01:49:42.670Z,99.90
2019-05-03T01:53:46.060Z,99.90
2019-05-03T01:57:44.614Z,99.90
2019-05-03T02:02:03.801Z,99.90
2019-05-03T02:06:06.543Z,99.90
2019-05-03T02:10:07.199Z,99.90
2019-05-03T02:14:22.190Z,99.90
2019-05-03T02:18:23.063Z,99.90
2019-05-03T02:22:24.014Z,99.90
2019-05-03T02:26:26.085Z,99.90
2019-05-03T02:30:28.021Z,99.90
2019-05-03T02:34:26.572Z,99.90
2019-05-03T02:38:26.231Z,99.90
2019-05-03T02:42:26.981Z,99.90
2019-05-03T02:46:39.364Z,99.90
2019-05-03T02:50:40.023Z,99.90
2019-05-03T02:54:46.567Z,99.90
2019-05-03T02:58:45.896Z,99.90
2019-05-03T03:02:48.503Z,99.90
2019-05-03T03:07:20.714Z,99.90
2019-05-03T03:10:55.682Z,99.90
2019-05-03T03:15:00.042Z,99.90
2019-05-03T03:19:01.916Z,99.90
2019-05-03T03:23:20.467Z,99.90
2019-05-03T03:27:25.744Z,99.90
2019-05-03T03:31:37.846Z,99.90
2019-05-03T03:35:38.121Z,99.90
2019-05-03T03:39:36.768Z,99.90
2019-05-03T03:43:36.665Z,99.90
2019-05-03T03:47:46.428Z,99.90
2019-05-03T03:51:40.766Z,99.90
2019-05-03T03:55:40.287Z,99.90
2019-05-03T03:59:40.750Z,99.90
2019-05-03T04:03:39.780Z,99.90
2019-05-03T04:07:41.752Z,99.90
2019-05-03T04:11:41.689Z,99.90
2019-05-03T04:15:52.954Z,99.90
2019-05-03T04:20:07.453Z,99.90
2019-05-03T04:24:06.341Z,99.90
2019-05-03T04:28:05.911Z,99.90
2019-05-03T04:32:06.886Z,99.90
2019-05-03T04:36:08.579Z,99.90
2019-05-03T04:40:07.304Z,99.90
2019-05-03T04:44:06.449Z,99.90
2019-05-03T04:48:07.780Z,99.90
2019-05-03T04:52:06.667Z,99.90
2019-05-03T04:56:06.505Z,99.90
2019-05-03T05:00:12.589Z,99.90
2019-05-03T05:04:11.095Z,99.90
2019-05-03T05:08:17.256Z,99.90
2019-05-03T05:12:17.610Z,99.90
2019-05-03T05:16:16.232Z,99.90
2019-05-03T05:20:20.788Z,99.90
2019-05-03T05:24:21.217Z,99.90
2019-05-03T05:28:21.442Z,99.90
2019-05-03T05:32:19.958Z,99.90
2019-05-03T05:36:20.526Z,99.90
2019-05-03T05:40:24.563Z,99.90
2019-05-03T05:44:24.773Z,99.90
2019-05-03T05:48:26.403Z,99.90
2019-05-03T05:52:24.919Z,99.90
2019-05-03T05:56:27.782Z,99.90
2019-05-03T06:00:30.288Z,99.90
2019-05-03T06:04:30.591Z,99.90
2019-05-03T06:08:35.416Z,99.90
2019-05-03T06:12:38.235Z,99.90
2019-05-03T06:16:38.404Z,99.90
2019-05-03T06:20:42.831Z,99.90
2019-05-03T06:24:58.530Z,99.90
2019-05-03T06:28:57.064Z,99.90
2019-05-03T06:32:57.467Z,99.90
2019-05-03T06:37:08.374Z,99.90
2019-05-03T06:41:05.757Z,99.90
2019-05-03T06:45:10.517Z,99.90
2019-05-03T06:49:12.119Z,99.90
2019-05-03T06:53:13.015Z,99.90
2019-05-03T06:57:14.760Z,99.90
2019-05-03T07:01:15.428Z,99.90
2019-05-03T07:05:28.092Z,99.90
2019-05-03T07:09:35.927Z,99.90
2019-05-03T07:13:34.544Z,99.90
2019-05-03T07:17:37.717Z,99.90
2019-05-03T07:21:38.054Z,99.90
2019-05-03T07:25:36.741Z,99.90
2019-05-03T07:29:36.606Z,99.90
2019-05-03T07:33:44.627Z,99.90
2019-05-03T07:37:50.269Z,99.90
2019-05-03T07:41:50.842Z,99.90
2019-05-03T07:45:56.086Z,99.90
2019-05-03T07:49:56.761Z,99.90
2019-05-03T07:53:55.709Z,99.90
2019-05-03T07:58:04.456Z,99.90
2019-05-03T08:02:02.225Z,99.90
2019-05-03T08:06:06.949Z,99.90
2019-05-03T08:10:09.446Z,99.90
2019-05-03T08:14:15.965Z,99.90
2019-05-03T08:18:15.343Z,99.90
2019-05-03T08:22:14.955Z,99.90
2019-05-03T08:26:15.291Z,99.90
2019-05-03T08:30:16.852Z,99.90
2019-05-03T08:34:20.209Z,99.90
2019-05-03T08:38:18.754Z,99.90
2019-05-03T08:42:25.609Z,99.90
2019-05-03T08:46:25.879Z,99.90
2019-05-03T08:50:27.387Z,99.90
2019-05-03T08:54:28.606Z,99.90
2019-05-03T08:58:29.610Z,99.90
2019-05-03T09:02:34.468Z,99.90
2019-05-03T09:06:35.353Z,99.90
2019-05-03T09:10:37.639Z,99.90
2019-05-03T09:14:42.529Z,99.90
2019-05-03T09:18:36.856Z,99.90
2019-05-03T09:22:35.392Z,99.90
2019-05-03T09:26:37.013Z,99.90
2019-05-03T09:30:36.838Z,99.90
2019-05-03T09:34:35.318Z,99.90
2019-05-03T09:38:35.015Z,99.90
2019-05-03T09:42:35.442Z,99.90
2019-05-03T09:46:35.627Z,96.10
2019-05-03T09:50:37.395Z,99.90
2019-05-03T09:54:37.645Z,99.00
2019-05-03T09:58:38.220Z,97.30
2019-05-03T10:02:36.992Z,98.40
2019-05-03T10:06:35.968Z,99.00
2019-05-03T10:10:54.467Z,97.40
2019-05-03T10:14:54.865Z,99.90
2019-05-03T10:18:56.924Z,99.90
2019-05-03T10:22:57.346Z,99.90
2019-05-03T10:27:02.810Z,99.90
2019-05-03T10:31:07.465Z,97.60
2019-05-03T10:35:09.627Z,92.10
2019-05-03T10:39:11.427Z,91.00
2019-05-03T10:43:10.647Z,90.70
2019-05-03T10:47:09.614Z,89.10
2019-05-03T10:51:08.386Z,90.00
2019-05-03T10:55:07.827Z,81.10
2019-05-03T10:59:11.362Z,87.30
2019-05-03T11:03:17.730Z,89.70
2019-05-03T11:07:19.924Z,89.80
2019-05-03T11:11:18.698Z,92.10
2019-05-03T11:15:17.596Z,89.70
2019-05-03T11:19:25.319Z,91.30
2019-05-03T11:23:25.051Z,91.50
2019-05-03T11:27:25.045Z,89.50
2019-05-03T11:31:40.002Z,88.90
2019-05-03T11:35:50.317Z,90.70
2019-05-03T11:39:53.340Z,86.10
2019-05-03T11:43:58.322Z,89.90
2019-05-03T11:47:58.849Z,88.70
2019-05-03T11:52:01.183Z,87.20
2019-05-03T11:56:55.762Z,84.70
2019-05-03T12:00:11.322Z,77.20
2019-05-03T12:04:11.734Z,73.00
2019-05-03T12:08:14.725Z,72.20
2019-05-03T12:12:15.503Z,70.50
2019-05-03T12:17:00.509Z,70.70
2019-05-03T12:20:28.703Z,68.30
2019-05-03T12:24:28.340Z,70.50
2019-05-03T12:28:53.122Z,69.10
2019-05-03T12:33:05.904Z,63.10
2019-05-03T12:36:57.366Z,65.80
2019-05-03T12:40:57.682Z,65.90
2019-05-03T12:45:04.544Z,66.80
2019-05-03T12:49:05.234Z,68.50
2019-05-03T12:53:05.446Z,69.80
2019-05-03T12:57:05.043Z,73.20
2019-05-03T13:01:11.807Z,72.30
2019-05-03T13:05:15.462Z,71.40
2019-05-03T13:09:16.008Z,72.50
2019-05-03T13:13:24.890Z,72.80
2019-05-03T13:17:36.080Z,73.90
2019-05-03T13:21:37.099Z,74.30
2019-05-03T13:25:35.625Z,74.40
2019-05-03T13:29:40.891Z,73.70
2019-05-03T13:33:40.680Z,76.40
2019-05-03T13:37:45.249Z,78.20
2019-05-03T13:41:45.517Z,76.70
2019-05-03T13:45:44.988Z,73.70
2019-05-03T13:49:50.404Z,71.60
2019-05-03T13:53:50.150Z,71.10
2019-05-03T13:57:54.827Z,68.60
2019-05-03T14:02:10.801Z,71.90
2019-05-03T14:06:08.597Z,73.90
2019-05-03T14:10:03.717Z,71.70
2019-05-03T14:14:04.670Z,71.70
2019-05-03T14:18:05.599Z,72.90
2019-05-03T14:22:05.388Z,72.00
2019-05-03T14:26:06.389Z,71.10
2019-05-03T14:30:10.906Z,72.50
2019-05-03T14:34:16.900Z,71.60
2019-05-03T14:38:15.106Z,71.20
2019-05-03T14:42:15.339Z,69.00
2019-05-03T14:46:16.301Z,72.00
2019-05-03T14:50:18.174Z,71.70
2019-05-03T14:54:16.857Z,73.00
2019-05-03T14:58:35.380Z,74.70
2019-05-03T15:07:07.389Z,74.20
2019-05-03T15:11:05.287Z,75.30
2019-05-03T15:15:07.309Z,74.80
2019-05-03T15:19:12.304Z,77.50
2019-05-03T15:23:25.434Z,80.00
2019-05-03T15:27:24.825Z,81.40
2019-05-03T15:31:24.594Z,82.80
2019-05-03T15:35:26.113Z,85.00
2019-05-03T15:39:26.238Z,84.90
2019-05-03T15:43:41.707Z,86.60
2019-05-03T15:48:02.101Z,88.50
2019-05-03T15:52:06.739Z,89.80
2019-05-03T15:56:07.997Z,87.20
2019-05-03T16:00:08.955Z,87.40
2019-05-03T16:04:07.492Z,87.20
2019-05-03T16:08:15.385Z,90.00
2019-05-03T16:12:14.578Z,91.80
2019-05-03T16:16:15.174Z,92.30
2019-05-03T16:20:14.425Z,91.50
2019-05-03T16:24:13.050Z,92.80
2019-05-03T16:28:20.335Z,92.00
2019-05-03T16:32:17.284Z,93.00
2019-05-03T16:36:24.286Z,95.10
2019-05-03T16:40:25.248Z,96.00
2019-05-03T16:44:26.846Z,97.40
2019-05-03T16:48:28.416Z,98.20
2019-05-03T16:52:32.505Z,97.80
2019-05-03T16:56:35.116Z,96.50
2019-05-03T17:00:35.156Z,97.50
2019-05-03T17:04:45.169Z,98.20
2019-05-03T17:08:57.298Z,99.70
2019-05-03T17:12:58.050Z,99.90
2019-05-03T17:16:58.198Z,99.90
2019-05-03T17:21:02.443Z,99.90
2019-05-03T17:25:06.546Z,99.90
2019-05-03T17:29:26.777Z,99.90
2019-05-03T17:33:25.320Z,99.90
2019-05-03T17:37:25.715Z,99.90
2019-05-03T17:41:27.966Z,99.90
2019-05-03T17:45:35.124Z,99.90
2019-05-03T17:49:34.816Z,99.90
2019-05-03T17:53:37.606Z,99.90
2019-05-03T17:57:44.438Z,99.90
2019-05-03T18:02:04.189Z,99.90
2019-05-03T18:06:07.644Z,99.90
2019-05-03T18:10:11.646Z,99.90
2019-05-03T18:14:10.202Z,99.90
2019-05-03T18:18:09.518Z,99.90
2019-05-03T18:22:27.498Z,99.90
2019-05-03T18:26:30.141Z,99.90
2019-05-03T18:30:31.813Z,99.90
2019-05-03T18:34:32.915Z,99.90
2019-05-03T18:38:35.094Z,99.90
2019-05-03T18:42:39.075Z,99.90
2019-05-03T18:46:42.080Z,99.90
2019-05-03T18:50:40.645Z,99.90
2019-05-03T18:54:45.142Z,99.90
2019-05-03T18:58:44.851Z,99.90
2019-05-03T19:02:46.952Z,99.90
2019-05-03T19:06:46.078Z,99.90
2019-05-03T19:10:56.643Z,99.90
2019-05-03T19:14:57.146Z,99.90
2019-05-03T19:18:59.908Z,99.90
2019-05-03T19:23:01.347Z,99.90
2019-05-03T19:27:00.006Z,99.90
2019-05-03T19:31:01.619Z,99.90
2019-05-03T19:35:00.528Z,99.90
2019-05-03T19:39:06.032Z,99.90
2019-05-03T19:43:05.248Z,99.90
2019-05-03T19:47:06.692Z,99.90
2019-05-03T19:51:14.886Z,99.90
2019-05-03T19:55:15.366Z,99.90
2019-05-03T19:59:17.119Z,99.90
2019-05-03T20:03:21.501Z,99.90
2019-05-03T20:07:29.089Z,99.90
2019-05-03T20:11:27.611Z,99.90
2019-05-03T20:15:28.897Z,99.90
2019-05-03T20:19:29.499Z,99.90
2019-05-03T20:23:29.978Z,99.90
2019-05-03T20:27:28.738Z,99.90
2019-05-03T20:31:27.281Z,99.90
2019-05-03T20:35:27.563Z,99.90
2019-05-03T20:39:26.021Z,99.90
2019-05-03T20:43:44.611Z,99.90
2019-05-03T20:47:47.606Z,99.90
2019-05-03T20:51:51.297Z,99.90
2019-05-03T20:55:49.388Z,99.90
2019-05-03T20:59:52.215Z,99.90
2019-05-03T21:03:51.087Z,99.90
2019-05-03T21:07:49.610Z,99.90
2019-05-03T21:11:49.765Z,99.90
2019-05-03T21:15:53.626Z,99.90
2019-05-03T21:20:00.226Z,99.90
2019-05-03T21:24:04.643Z,99.90
2019-05-03T21:28:05.814Z,99.90
2019-05-03T21:32:04.596Z,99.90
2019-05-03T21:36:07.160Z,99.90
2019-05-03T21:40:17.215Z,99.90
2019-05-03T21:44:35.555Z,99.90
2019-05-03T21:48:55.378Z,99.90
2019-05-03T21:52:57.961Z,99.90
2019-05-03T21:56:57.986Z,99.90
2019-05-03T22:01:06.003Z,99.90
2019-05-03T22:05:07.863Z,99.90
2019-05-03T22:09:07.166Z,99.90
2019-05-03T22:13:07.468Z,99.90
2019-05-03T22:17:34.214Z,99.90
2019-05-03T22:21:41.847Z,99.90
2019-05-03T22:25:46.172Z,99.90
2019-05-03T22:29:49.478Z,99.90
2019-05-03T22:33:52.038Z,99.90
2019-05-03T22:37:55.076Z,99.90
2019-05-03T22:41:59.289Z,99.90
2019-05-03T22:45:57.767Z,99.90
2019-05-03T22:49:56.317Z,99.90
2019-05-03T22:53:55.259Z,99.90
2019-05-03T22:57:58.086Z,99.90
2019-05-03T23:01:59.647Z,99.90
2019-05-03T23:06:05.052Z,99.90
2019-05-03T23:10:06.550Z,99.90
2019-05-03T23:14:15.054Z,99.90
2019-05-03T23:18:17.227Z,99.90
2019-05-03T23:22:19.738Z,99.90
2019-05-03T23:26:22.193Z,99.90
2019-05-03T23:30:34.930Z,99.90
2019-05-03T23:34:36.157Z,99.90
2019-05-03T23:38:34.405Z,99.90
2019-05-03T23:42:35.081Z,99.90
2019-05-03T23:46:45.470Z,99.90
2019-05-03T23:50:56.298Z,99.90
2019-05-03T23:54:58.929Z,99.90
2019-05-03T23:58:59.000Z,99.90
